createdAt,value
2019-03-19T00:01:52.348Z,8.37
2019-03-19T00:04:24.018Z,7.27
2019-03-19T00:06:55.246Z,7.10
2019-03-19T00:09:29.718Z,7.77
2019-03-19T00:11:58.117Z,8.40
2019-03-19T00:14:29.616Z,7.80
2019-03-19T00:16:59.649Z,7.13
2019-03-19T00:19:31.081Z,7.57
2019-03-19T00:22:01.141Z,8.07
2019-03-19T00:24:29.806Z,8.13
2019-03-19T00:26:58.193Z,9.47
2019-03-19T00:29:26.584Z,8.83
2019-03-19T00:31:56.007Z,9.67
2019-03-19T00:34:33.462Z,11.10
2019-03-19T00:37:07.777Z,11.73
2019-03-19T00:39:39.693Z,11.10
2019-03-19T00:42:10.873Z,10.70
2019-03-19T00:44:42.623Z,10.17
2019-03-19T00:47:14.089Z,9.80
2019-03-19T00:49:42.810Z,9.57
2019-03-19T00:52:11.507Z,8.70
2019-03-19T00:54:41.547Z,9.10
2019-03-19T00:57:11.442Z,9.50
2019-03-19T00:59:42.744Z,9.90
2019-03-19T01:02:20.168Z,9.67
2019-03-19T01:04:48.565Z,11.77
2019-03-19T01:07:18.617Z,12.23
2019-03-19T01:09:47.274Z,11.70
2019-03-19T01:12:19.254Z,11.33
2019-03-19T01:14:47.641Z,9.90
2019-03-19T01:17:16.029Z,9.70
2019-03-19T01:19:44.418Z,9.37
2019-03-19T01:22:12.813Z,9.67
2019-03-19T01:24:41.215Z,8.97
2019-03-19T01:27:12.274Z,9.83
2019-03-19T01:29:41.697Z,8.77
2019-03-19T01:32:10.170Z,9.23
2019-03-19T01:34:40.201Z,10.60
2019-03-19T01:37:11.554Z,11.33
2019-03-19T01:39:39.969Z,12.23
2019-03-19T01:42:13.073Z,13.20
2019-03-19T01:44:44.397Z,12.87
2019-03-19T01:47:12.802Z,14.03
2019-03-19T01:49:41.898Z,12.93
2019-03-19T01:52:10.298Z,12.57
2019-03-19T01:54:43.359Z,11.77
2019-03-19T01:57:16.027Z,12.37
2019-03-19T01:59:50.138Z,14.40
2019-03-19T02:02:24.598Z,13.13
2019-03-19T02:04:53.011Z,12.63
2019-03-19T02:07:21.642Z,12.63
2019-03-19T02:09:52.945Z,11.53
2019-03-19T02:12:26.061Z,10.73
2019-03-19T02:15:00.047Z,22.57
2019-03-19T02:17:28.751Z,24.50
2019-03-19T02:19:57.141Z,23.43
2019-03-19T02:22:28.222Z,19.83
2019-03-19T02:24:58.255Z,19.60
2019-03-19T02:27:28.294Z,15.13
2019-03-19T02:29:59.371Z,14.17
2019-03-19T02:32:27.785Z,14.03
2019-03-19T02:35:00.681Z,14.17
2019-03-19T02:37:27.731Z,13.67
2019-03-19T02:39:59.036Z,14.33
2019-03-19T02:42:30.499Z,20.83
2019-03-19T02:44:59.123Z,30.50
2019-03-19T02:47:27.531Z,27.37
2019-03-19T02:49:55.927Z,21.93
2019-03-19T02:52:24.331Z,19.37
2019-03-19T02:54:55.498Z,16.63
2019-03-19T02:57:24.130Z,15.10
2019-03-19T02:59:52.530Z,14.63
2019-03-19T03:02:25.323Z,12.67
2019-03-19T03:04:51.487Z,13.07
2019-03-19T03:07:19.886Z,10.33
2019-03-19T03:09:50.941Z,9.47
2019-03-19T03:12:19.593Z,9.03
2019-03-19T03:14:47.987Z,8.17
2019-03-19T03:17:16.369Z,9.33
2019-03-19T03:19:48.113Z,7.93
2019-03-19T03:22:18.043Z,7.00
2019-03-19T03:24:46.473Z,7.07
2019-03-19T03:27:14.911Z,7.00
2019-03-19T03:29:43.311Z,6.27
2019-03-19T03:32:11.725Z,5.77
2019-03-19T03:34:41.734Z,6.50
2019-03-19T03:37:12.589Z,6.70
2019-03-19T03:39:42.274Z,6.63
2019-03-19T03:42:13.510Z,6.43
2019-03-19T03:44:42.848Z,5.80
2019-03-19T03:47:11.232Z,6.10
2019-03-19T03:49:42.527Z,5.87
2019-03-19T03:52:13.861Z,6.90
2019-03-19T03:54:43.901Z,7.10
2019-03-19T03:57:15.208Z,7.30
2019-03-19T03:59:48.271Z,6.43
2019-03-19T04:02:17.667Z,7.03
2019-03-19T04:04:48.503Z,7.33
2019-03-19T04:07:17.138Z,6.27
2019-03-19T04:09:45.634Z,6.80
2019-03-19T04:12:14.343Z,5.80
2019-03-19T04:14:42.729Z,6.30
2019-03-19T04:17:11.135Z,5.80
2019-03-19T04:19:39.543Z,5.57
2019-03-19T04:22:08.182Z,5.70
2019-03-19T04:24:40.810Z,5.40
2019-03-19T04:27:16.430Z,6.10
2019-03-19T04:29:43.898Z,5.70
2019-03-19T04:32:12.289Z,5.27
2019-03-19T04:34:40.677Z,5.60
2019-03-19T04:37:09.058Z,5.63
2019-03-19T04:39:40.400Z,5.77
2019-03-19T04:42:08.783Z,5.67
2019-03-19T04:44:37.178Z,5.97
2019-03-19T04:47:08.600Z,6.53
2019-03-19T04:49:37.004Z,8.23
2019-03-19T04:52:08.470Z,9.67
2019-03-19T04:54:37.113Z,7.93
2019-03-19T04:57:14.014Z,7.10
2019-03-19T04:59:51.195Z,7.23
2019-03-19T05:02:22.511Z,6.53
2019-03-19T05:04:50.901Z,5.73
2019-03-19T05:07:20.274Z,6.07
2019-03-19T05:09:48.663Z,6.13
2019-03-19T05:12:17.243Z,5.63
2019-03-19T05:14:45.915Z,8.20
2019-03-19T05:17:14.317Z,9.50
2019-03-19T05:19:48.508Z,7.67
2019-03-19T05:22:21.278Z,7.40
2019-03-19T05:24:52.950Z,6.80
2019-03-19T05:27:22.194Z,5.70
2019-03-19T05:29:53.293Z,5.83
2019-03-19T05:32:21.817Z,5.13
2019-03-19T05:34:50.459Z,5.63
2019-03-19T05:37:18.837Z,5.90
2019-03-19T05:39:47.348Z,7.20
2019-03-19T05:42:15.728Z,6.57
2019-03-19T05:44:44.127Z,7.83
2019-03-19T05:47:12.521Z,8.67
2019-03-19T05:49:40.914Z,8.00
2019-03-19T05:52:09.307Z,8.50
2019-03-19T05:54:37.712Z,8.83
2019-03-19T05:57:11.873Z,9.40
2019-03-19T05:59:40.286Z,8.67
2019-03-19T06:02:14.179Z,9.67
2019-03-19T06:04:47.950Z,9.17
2019-03-19T06:07:16.582Z,9.37
2019-03-19T06:09:45.103Z,9.03
2019-03-19T06:12:13.493Z,8.60
2019-03-19T06:14:44.831Z,8.80
2019-03-19T06:17:13.231Z,9.63
2019-03-19T06:19:41.619Z,10.00
2019-03-19T06:22:12.962Z,9.50
2019-03-19T06:24:47.242Z,9.53
2019-03-19T06:27:15.890Z,9.17
2019-03-19T06:29:44.301Z,11.33
2019-03-19T06:32:12.690Z,11.13
2019-03-19T06:34:41.077Z,9.10
2019-03-19T06:37:14.297Z,7.13
2019-03-19T06:39:45.905Z,6.20
2019-03-19T06:42:15.994Z,5.13
2019-03-19T06:44:46.033Z,6.63
2019-03-19T06:47:17.104Z,6.43
2019-03-19T06:49:45.662Z,7.67
2019-03-19T06:52:19.990Z,7.00
2019-03-19T06:54:48.626Z,9.00
2019-03-19T06:57:19.825Z,6.90
2019-03-19T06:59:48.219Z,5.67
2019-03-19T07:02:19.836Z,6.17
2019-03-19T07:04:48.472Z,5.50
2019-03-19T07:07:16.853Z,6.77
2019-03-19T07:09:47.128Z,7.10
2019-03-19T07:12:15.645Z,6.73
2019-03-19T07:14:44.045Z,5.80
2019-03-19T07:17:14.073Z,5.87
2019-03-19T07:19:44.119Z,5.77
2019-03-19T07:22:21.348Z,5.33
2019-03-19T07:24:53.033Z,5.17
2019-03-19T07:27:21.442Z,5.37
2019-03-19T07:29:49.853Z,4.53
2019-03-19T07:32:21.179Z,4.90
2019-03-19T07:34:49.817Z,4.93
2019-03-19T07:37:28.079Z,4.87
2019-03-19T07:39:59.337Z,4.80
2019-03-19T07:42:30.429Z,4.70
2019-03-19T07:45:00.621Z,5.07
2019-03-19T07:47:29.013Z,4.10
2019-03-19T07:50:00.471Z,4.47
2019-03-19T07:52:28.868Z,4.30
2019-03-19T07:54:57.257Z,4.30
2019-03-19T07:57:29.570Z,4.20
2019-03-19T07:59:58.574Z,4.33
2019-03-19T08:02:27.235Z,4.17
2019-03-19T08:04:55.617Z,4.43
2019-03-19T08:07:29.777Z,4.37
2019-03-19T08:10:01.076Z,5.17
2019-03-19T08:12:29.472Z,4.13
2019-03-19T08:14:57.868Z,4.10
2019-03-19T08:17:29.617Z,4.80
2019-03-19T08:20:05.671Z,3.93
2019-03-19T08:22:36.748Z,4.33
2019-03-19T08:25:18.010Z,4.20
2019-03-19T08:27:49.060Z,3.77
2019-03-19T08:30:24.269Z,4.00
2019-03-19T08:32:52.002Z,4.30
2019-03-19T08:35:20.718Z,4.90
2019-03-19T08:37:49.107Z,4.00
2019-03-19T08:40:21.366Z,4.90
2019-03-19T08:42:52.479Z,4.57
2019-03-19T08:45:25.605Z,4.37
2019-03-19T08:48:02.853Z,4.67
2019-03-19T08:50:36.965Z,3.80
2019-03-19T08:53:05.362Z,4.17
2019-03-19T08:55:36.366Z,3.97
2019-03-19T08:58:06.475Z,3.30
2019-03-19T09:00:35.175Z,3.63
2019-03-19T09:03:06.380Z,4.17
2019-03-19T09:05:37.786Z,4.27
2019-03-19T09:08:06.184Z,4.70
2019-03-19T09:10:34.574Z,4.23
2019-03-19T09:13:04.498Z,5.10
2019-03-19T09:15:32.884Z,5.03
2019-03-19T09:18:01.265Z,4.80
2019-03-19T09:20:31.214Z,4.27
2019-03-19T09:22:59.645Z,5.20
2019-03-19T09:25:33.358Z,4.53
2019-03-19T09:28:01.759Z,4.87
2019-03-19T09:30:31.797Z,4.70
2019-03-19T09:33:00.428Z,5.43
2019-03-19T09:35:28.808Z,5.13
2019-03-19T09:38:02.639Z,4.83
2019-03-19T09:40:31.045Z,4.47
2019-03-19T09:43:03.716Z,4.23
2019-03-19T09:45:32.194Z,4.03
2019-03-19T09:48:02.125Z,4.20
2019-03-19T09:50:30.688Z,3.63
2019-03-19T09:53:04.049Z,3.73
2019-03-19T09:55:32.451Z,3.17
2019-03-19T09:58:06.189Z,3.00
2019-03-19T10:00:34.586Z,3.75
2019-03-19T10:03:07.273Z,2.73
2019-03-19T10:05:38.362Z,3.25
2019-03-19T10:08:09.948Z,3.10
2019-03-19T10:10:38.380Z,3.05
2019-03-19T10:13:09.717Z,2.98
2019-03-19T10:15:38.961Z,2.20
2019-03-19T10:18:07.349Z,2.77
2019-03-19T10:20:37.369Z,3.22
2019-03-19T10:23:11.361Z,3.58
2019-03-19T10:25:43.974Z,3.00
2019-03-19T10:28:15.683Z,2.65
2019-03-19T10:30:44.057Z,2.75
2019-03-19T10:33:12.454Z,2.83
2019-03-19T10:35:40.838Z,3.23
2019-03-19T10:38:09.236Z,2.90
2019-03-19T10:40:37.867Z,3.00
2019-03-19T10:43:06.711Z,2.50
2019-03-19T10:45:37.421Z,2.93
2019-03-19T10:48:08.469Z,2.47
2019-03-19T10:50:39.798Z,2.43
2019-03-19T10:53:10.833Z,2.73
2019-03-19T10:55:40.861Z,2.90
2019-03-19T10:58:11.499Z,2.60
2019-03-19T11:00:44.100Z,2.37
2019-03-19T11:03:19.361Z,2.97
2019-03-19T11:05:52.311Z,2.97
2019-03-19T11:08:23.609Z,2.33
2019-03-19T11:10:52.010Z,2.13
2019-03-19T11:13:20.398Z,2.30
2019-03-19T11:15:50.684Z,2.80
2019-03-19T11:18:20.708Z,2.02
2019-03-19T11:20:51.806Z,3.03
2019-03-19T11:23:20.213Z,2.37
2019-03-19T11:25:54.371Z,2.67
2019-03-19T11:28:18.718Z,1.92
2019-03-19T11:30:47.345Z,2.42
2019-03-19T11:33:15.755Z,2.37
2019-03-19T11:35:45.700Z,1.85
2019-03-19T11:38:15.635Z,2.60
2019-03-19T11:40:46.655Z,2.77
2019-03-19T11:43:17.075Z,3.02
2019-03-19T11:45:46.420Z,2.60
2019-03-19T11:48:19.906Z,2.72
2019-03-19T11:50:48.298Z,2.90
2019-03-19T11:53:16.689Z,2.60
2019-03-19T11:55:45.093Z,3.67
2019-03-19T11:58:13.478Z,2.75
2019-03-19T12:00:46.184Z,2.45
2019-03-19T12:03:16.323Z,2.70
2019-03-19T12:05:44.798Z,2.55
2019-03-19T12:08:13.282Z,2.50
2019-03-19T12:10:41.903Z,2.40
2019-03-19T12:13:10.282Z,2.67
2019-03-19T12:15:38.681Z,2.40
2019-03-19T12:18:07.069Z,3.23
2019-03-19T12:20:35.714Z,2.23
2019-03-19T12:23:04.976Z,2.70
2019-03-19T12:25:35.082Z,2.75
2019-03-19T12:28:08.105Z,1.98
2019-03-19T12:30:37.485Z,2.37
2019-03-19T12:33:08.956Z,2.12
2019-03-19T12:35:38.993Z,2.10
2019-03-19T12:38:07.649Z,2.00
2019-03-19T12:40:37.605Z,1.77
2019-03-19T12:43:07.379Z,2.35
2019-03-19T12:45:35.775Z,2.15
2019-03-19T12:48:04.930Z,1.90
2019-03-19T12:50:33.322Z,1.80
2019-03-19T12:53:01.698Z,2.15
2019-03-19T12:55:30.871Z,1.77
2019-03-19T12:58:01.518Z,2.35
2019-03-19T13:00:34.757Z,2.00
2019-03-19T13:03:00.784Z,2.92
2019-03-19T13:05:29.429Z,2.75
2019-03-19T13:08:01.029Z,2.00
2019-03-19T13:10:29.458Z,2.40
2019-03-19T13:12:57.893Z,2.37
2019-03-19T13:15:27.972Z,2.62
2019-03-19T13:17:56.365Z,2.42
2019-03-19T13:20:25.001Z,2.40
2019-03-19T13:22:53.395Z,2.42
2019-03-19T13:25:26.567Z,2.50
2019-03-19T13:27:55.042Z,2.30
2019-03-19T13:30:30.997Z,1.98
2019-03-19T13:32:59.627Z,1.98
2019-03-19T13:35:30.591Z,1.82
2019-03-19T13:37:59.032Z,1.92
2019-03-19T13:40:30.137Z,2.30
2019-03-19T13:43:00.181Z,1.95
2019-03-19T13:45:28.570Z,2.45
2019-03-19T13:47:57.199Z,2.53
2019-03-19T13:50:25.589Z,2.35
2019-03-19T13:52:56.945Z,2.27
2019-03-19T13:55:25.340Z,2.60
2019-03-19T13:57:58.107Z,2.10
2019-03-19T14:00:27.450Z,2.98
2019-03-19T14:02:55.934Z,2.42
2019-03-19T14:05:26.894Z,3.22
2019-03-19T14:07:55.385Z,2.33
2019-03-19T14:10:24.005Z,2.67
2019-03-19T14:12:55.168Z,3.05
2019-03-19T14:15:25.985Z,2.83
2019-03-19T14:17:56.333Z,2.85
2019-03-19T14:20:24.807Z,2.95
2019-03-19T14:22:53.481Z,3.05
2019-03-19T14:25:21.859Z,2.42
2019-03-19T14:27:53.146Z,2.83
2019-03-19T14:30:23.972Z,2.50
2019-03-19T14:32:55.029Z,2.80
2019-03-19T14:35:36.851Z,2.05
2019-03-19T14:37:59.007Z,2.60
2019-03-19T14:40:28.260Z,2.45
2019-03-19T14:43:00.113Z,2.25
2019-03-19T14:45:29.996Z,2.67
2019-03-19T14:47:58.576Z,2.55
2019-03-19T14:50:27.769Z,2.30
2019-03-19T14:52:56.161Z,3.25
2019-03-19T14:55:24.561Z,2.35
2019-03-19T14:57:56.958Z,2.62
2019-03-19T15:00:25.373Z,2.62
2019-03-19T15:02:56.841Z,2.65
2019-03-19T15:05:34.131Z,2.60
2019-03-19T15:08:02.512Z,2.72
2019-03-19T15:10:30.982Z,2.80
2019-03-19T15:13:05.162Z,2.55
2019-03-19T15:15:33.561Z,2.55
2019-03-19T15:18:01.962Z,2.45
2019-03-19T15:20:36.097Z,2.60
2019-03-19T15:23:06.550Z,2.50
2019-03-19T15:25:34.680Z,2.47
2019-03-19T15:28:05.750Z,2.87
2019-03-19T15:30:34.897Z,2.07
2019-03-19T15:33:04.086Z,2.40
2019-03-19T15:35:35.361Z,2.10
2019-03-19T15:38:04.521Z,2.30
2019-03-19T15:40:32.905Z,2.23
2019-03-19T15:43:03.086Z,2.37
2019-03-19T15:45:36.002Z,2.30
2019-03-19T15:48:05.225Z,2.20
2019-03-19T15:50:33.836Z,2.40
2019-03-19T15:53:16.238Z,3.03
2019-03-19T15:55:44.613Z,3.40
2019-03-19T15:58:14.900Z,3.00
2019-03-19T16:00:46.912Z,2.60
2019-03-19T16:03:15.302Z,2.97
2019-03-19T16:05:45.355Z,2.17
2019-03-19T16:08:16.633Z,2.33
2019-03-19T16:10:47.957Z,2.03
2019-03-19T16:13:19.354Z,2.60
2019-03-19T16:15:49.377Z,2.73
2019-03-19T16:18:17.773Z,2.87
2019-03-19T16:20:50.577Z,2.23
2019-03-19T16:23:19.790Z,2.80
2019-03-19T16:25:48.170Z,2.20
2019-03-19T16:28:16.654Z,2.20
2019-03-19T16:30:45.045Z,2.20
2019-03-19T16:33:13.425Z,3.10
2019-03-19T16:35:41.817Z,2.60
2019-03-19T16:38:11.857Z,2.60
2019-03-19T16:40:40.297Z,2.10
2019-03-19T16:43:10.324Z,2.70
2019-03-19T16:45:38.715Z,1.90
2019-03-19T16:48:08.973Z,2.57
2019-03-19T16:50:37.664Z,2.37
2019-03-19T16:53:06.052Z,1.97
2019-03-19T16:55:38.038Z,2.10
2019-03-19T16:58:08.129Z,2.30
2019-03-19T17:00:36.597Z,2.17
2019-03-19T17:03:11.076Z,2.00
2019-03-19T17:05:45.312Z,1.60
2019-03-19T17:08:13.689Z,2.00
2019-03-19T17:10:43.965Z,1.60
2019-03-19T17:13:12.514Z,1.77
2019-03-19T17:15:40.893Z,1.40
2019-03-19T17:18:09.274Z,2.03
2019-03-19T17:20:40.982Z,1.83
2019-03-19T17:23:09.369Z,2.03
2019-03-19T17:25:42.138Z,1.60
2019-03-19T17:28:22.074Z,1.57
2019-03-19T17:30:44.293Z,1.30
2019-03-19T17:33:12.685Z,1.43
2019-03-19T17:35:44.114Z,2.00
2019-03-19T17:38:15.576Z,2.13
2019-03-19T17:40:45.636Z,2.00
2019-03-19T17:43:14.254Z,2.50
2019-03-19T17:45:42.647Z,1.97
2019-03-19T17:48:16.210Z,2.30
2019-03-19T17:50:44.241Z,2.67
2019-03-19T17:53:15.314Z,2.77
2019-03-19T17:55:50.495Z,2.37
2019-03-19T17:58:24.934Z,3.20
2019-03-19T18:00:56.401Z,3.87
2019-03-19T18:03:27.458Z,3.77
2019-03-19T18:05:55.841Z,4.07
2019-03-19T18:08:24.250Z,3.37
2019-03-19T18:10:52.631Z,2.60
2019-03-19T18:13:22.564Z,2.60
2019-03-19T18:15:50.940Z,2.40
2019-03-19T18:18:19.321Z,2.20
2019-03-19T18:20:47.823Z,2.33
2019-03-19T18:23:19.470Z,1.97
2019-03-19T18:25:48.680Z,2.07
2019-03-19T18:28:19.945Z,1.70
2019-03-19T18:30:48.369Z,2.07
2019-03-19T18:33:16.721Z,2.73
2019-03-19T18:35:46.757Z,3.70
2019-03-19T18:38:15.136Z,2.33
2019-03-19T18:40:43.528Z,1.60
2019-03-19T18:43:11.909Z,1.73
2019-03-19T18:45:41.257Z,1.70
2019-03-19T18:48:09.872Z,1.80
2019-03-19T18:50:38.262Z,1.70
2019-03-19T18:53:09.364Z,1.53
2019-03-19T18:55:37.981Z,1.73
2019-03-19T18:58:08.017Z,1.90
2019-03-19T19:00:36.405Z,2.27
2019-03-19T19:03:07.514Z,2.00
2019-03-19T19:05:35.925Z,2.23
2019-03-19T19:08:04.317Z,1.70
2019-03-19T19:10:32.694Z,1.50
2019-03-19T19:13:06.226Z,1.53
2019-03-19T19:15:37.530Z,1.60
2019-03-19T19:18:06.574Z,1.60
2019-03-19T19:20:36.267Z,1.43
2019-03-19T19:23:04.640Z,1.60
2019-03-19T19:25:41.590Z,1.27
2019-03-19T19:28:12.695Z,1.60
2019-03-19T19:30:43.523Z,1.50
2019-03-19T19:33:11.894Z,1.53
2019-03-19T19:35:41.917Z,1.57
2019-03-19T19:38:13.009Z,1.87
2019-03-19T19:40:41.395Z,1.90
2019-03-19T19:43:12.809Z,1.87
2019-03-19T19:45:44.292Z,1.60
2019-03-19T19:48:12.666Z,2.33
2019-03-19T19:50:41.074Z,3.37
2019-03-19T19:53:09.457Z,3.93
2019-03-19T19:55:47.529Z,3.40
2019-03-19T19:58:17.141Z,3.10
2019-03-19T20:00:46.201Z,3.27
2019-03-19T20:03:22.741Z,2.77
2019-03-19T20:05:52.761Z,2.43
2019-03-19T20:08:24.025Z,2.50
2019-03-19T20:10:52.401Z,2.47
2019-03-19T20:13:21.797Z,2.20
2019-03-19T20:15:53.082Z,3.60
2019-03-19T20:18:21.887Z,3.00
2019-03-19T20:20:53.401Z,2.53
2019-03-19T20:23:41.306Z,2.23
2019-03-19T20:26:12.621Z,2.80
2019-03-19T20:28:41.018Z,3.17
2019-03-19T20:31:12.348Z,2.50
2019-03-19T20:33:41.873Z,3.47
2019-03-19T20:36:13.290Z,3.30
2019-03-19T20:38:43.343Z,3.70
2019-03-19T20:41:14.531Z,3.47
2019-03-19T20:43:44.593Z,3.97
2019-03-19T20:46:12.998Z,5.30
2019-03-19T20:48:41.378Z,4.23
2019-03-19T20:51:09.773Z,4.07
2019-03-19T20:53:38.156Z,4.07
2019-03-19T20:56:07.032Z,4.43
2019-03-19T20:58:43.692Z,4.43
2019-03-19T21:01:14.922Z,5.20
2019-03-19T21:03:43.317Z,6.23
2019-03-19T21:06:11.710Z,7.70
2019-03-19T21:08:44.038Z,8.07
2019-03-19T21:11:12.422Z,7.03
2019-03-19T21:13:40.817Z,6.60
2019-03-19T21:16:18.405Z,5.83
2019-03-19T21:18:47.578Z,5.63
2019-03-19T21:21:16.205Z,5.60
2019-03-19T21:23:44.601Z,5.07
2019-03-19T21:26:13.001Z,5.23
2019-03-19T21:28:41.389Z,5.70
2019-03-19T21:31:10.755Z,5.93
2019-03-19T21:33:50.460Z,5.90
2019-03-19T21:36:12.614Z,6.27
2019-03-19T21:38:41.005Z,6.30
2019-03-19T21:41:15.353Z,5.87
2019-03-19T21:43:46.923Z,6.00
2019-03-19T21:46:15.614Z,6.93
2019-03-19T21:48:44.017Z,7.67
2019-03-19T21:51:12.422Z,6.93
2019-03-19T21:53:43.568Z,7.77
2019-03-19T21:56:11.997Z,7.47
2019-03-19T21:58:40.389Z,7.90
2019-03-19T22:01:08.782Z,7.67
2019-03-19T22:03:43.330Z,8.07
2019-03-19T22:06:19.216Z,7.23
2019-03-19T22:08:47.616Z,6.47
2019-03-19T22:11:16.012Z,7.17
2019-03-19T22:13:47.122Z,8.17
2019-03-19T22:16:15.721Z,8.50
2019-03-19T22:18:50.028Z,8.73
2019-03-19T22:21:19.219Z,6.00
2019-03-19T22:23:50.583Z,5.77
2019-03-19T22:26:19.038Z,4.87
2019-03-19T22:28:59.294Z,4.80
2019-03-19T22:31:31.978Z,4.93
2019-03-19T22:34:00.363Z,4.57
2019-03-19T22:36:30.126Z,5.20
2019-03-19T22:39:04.289Z,4.90
2019-03-19T22:41:32.778Z,5.07
2019-03-19T22:44:07.161Z,5.27
2019-03-19T22:46:38.189Z,5.37
2019-03-19T22:49:06.594Z,5.03
2019-03-19T22:51:39.799Z,5.37
2019-03-19T22:54:09.837Z,4.17
2019-03-19T22:56:38.218Z,2.90
2019-03-19T22:59:14.338Z,2.53
2019-03-19T23:01:42.729Z,2.47
2019-03-19T23:04:26.744Z,3.00
2019-03-19T23:06:55.862Z,2.80
2019-03-19T23:09:21.914Z,2.67
2019-03-19T23:11:58.294Z,2.53
2019-03-19T23:14:26.752Z,3.10
2019-03-19T23:16:55.141Z,2.83
2019-03-19T23:19:25.577Z,3.23
2019-03-19T23:21:56.667Z,2.83
2019-03-19T23:24:27.918Z,2.90
2019-03-19T23:27:01.967Z,3.23
2019-03-19T23:29:33.010Z,3.10
2019-03-19T23:32:01.417Z,3.87
2019-03-19T23:34:38.595Z,7.00
2019-03-19T23:37:01.549Z,5.03
2019-03-19T23:39:30.868Z,4.03
2019-03-19T23:42:08.166Z,4.33
2019-03-19T23:44:39.459Z,4.07
2019-03-19T23:47:13.984Z,3.97
2019-03-19T23:49:42.368Z,4.23
2019-03-19T23:52:10.759Z,3.30
2019-03-19T23:54:40.687Z,3.77
2019-03-19T23:57:10.720Z,4.00
2019-03-19T23:59:46.338Z,3.57
